Time;durP1;ratioP1;P1;durP2;ratioP2;P2;SDS_P1;SDS_P2;PMS_P1;PMS_P2;Temp;Humidity;BMP_temperature;BMP_pressure;BME280_temperature;BME280_humidity;BME280_pressure;Samples;Min_cycle;Max_cycle;Signal;HPM_P1;HPM_P2
2023/06/03 00:03:49;;;;;;;;;;;20.50;53.10;;;;;;10366389;28;1969;-71
2023/06/03 00:08:44;;;;;;;;;;;20.50;53.00;;;;;;10365630;28;862;-72
2023/06/03 00:13:40;;;;;;;;;;;20.50;53.00;;;;;;10366097;28;984;-72
2023/06/03 00:18:35;;;;;;;;;;;20.50;53.10;;;;;;10365482;28;1002;-72
2023/06/03 00:23:32;;;;;;;;;;;20.50;53.00;;;;;;10365888;28;1914;-72
2023/06/03 00:28:27;;;;;;;;;;;20.50;53.60;;;;;;10366703;28;794;-72
2023/06/03 00:33:22;;;;;;;;;;;20.50;53.00;;;;;;10366004;28;873;-72
2023/06/03 00:38:18;;;;;;;;;;;20.50;53.10;;;;;;10366833;28;1372;-72
2023/06/03 00:43:13;;;;;;;;;;;20.50;53.10;;;;;;10371964;28;1979;-71
2023/06/03 00:48:09;;;;;;;;;;;20.50;53.00;;;;;;10373272;28;870;-72
2023/06/03 00:53:04;;;;;;;;;;;20.50;53.00;;;;;;10373151;28;882;-71
2023/06/03 00:58:00;;;;;;;;;;;20.50;53.00;;;;;;10373665;28;823;-71
2023/06/03 01:02:56;;;;;;;;;;;20.50;52.90;;;;;;10373500;28;825;-71
2023/06/03 01:07:51;;;;;;;;;;;20.50;53.00;;;;;;10373126;28;1976;-72
2023/06/03 01:12:46;;;;;;;;;;;20.50;53.00;;;;;;10372308;28;898;-72
2023/06/03 01:17:45;;;;;;;;;;;20.50;53.00;;;;;;10372193;28;805;-72
2023/06/03 01:22:40;;;;;;;;;;;20.50;53.00;;;;;;10371942;28;894;-72
2023/06/03 01:27:36;;;;;;;;;;;20.40;52.90;;;;;;10372352;28;1906;-71
2023/06/03 01:32:32;;;;;;;;;;;20.50;53.00;;;;;;10372173;28;853;-72
2023/06/03 01:37:27;;;;;;;;;;;20.50;52.90;;;;;;10370793;28;1495;-72
2023/06/03 01:42:22;;;;;;;;;;;20.50;53.00;;;;;;10371837;28;819;-72
2023/06/03 01:47:18;;;;;;;;;;;20.50;53.00;;;;;;10371040;28;1914;-72
2023/06/03 01:52:13;;;;;;;;;;;20.50;53.00;;;;;;10370814;28;912;-71
2023/06/03 01:57:09;;;;;;;;;;;20.50;53.00;;;;;;10370720;28;791;-72
2023/06/03 02:02:04;;;;;;;;;;;20.40;53.00;;;;;;10370522;28;840;-72
2023/06/03 02:07:00;;;;;;;;;;;20.40;53.00;;;;;;10370132;28;1902;-72
2023/06/03 02:11:55;;;;;;;;;;;20.40;53.00;;;;;;10370642;28;835;-72
2023/06/03 02:16:50;;;;;;;;;;;20.40;52.90;;;;;;10369801;28;906;-72
2023/06/03 02:21:46;;;;;;;;;;;20.40;53.00;;;;;;10370251;28;851;-72
2023/06/03 02:26:50;;;;;;;;;;;20.40;53.00;;;;;;10369428;28;1972;-72
2023/06/03 02:31:46;;;;;;;;;;;20.40;52.90;;;;;;10369312;28;799;-72
2023/06/03 02:36:42;;;;;;;;;;;20.40;53.00;;;;;;10368912;28;1205;-72
2023/06/03 02:41:37;;;;;;;;;;;20.40;53.00;;;;;;10368925;28;821;-72
2023/06/03 02:46:32;;;;;;;;;;;20.40;53.00;;;;;;10368273;28;1918;-71
2023/06/03 02:51:28;;;;;;;;;;;20.40;52.90;;;;;;10369114;28;850;-72
2023/06/03 02:56:23;;;;;;;;;;;20.40;53.00;;;;;;10368947;28;869;-72
2023/06/03 03:01:19;;;;;;;;;;;20.40;53.00;;;;;;10368339;28;845;-72
2023/06/03 03:06:15;;;;;;;;;;;20.40;53.00;;;;;;10367394;28;1905;-72
2023/06/03 03:11:11;;;;;;;;;;;20.30;52.90;;;;;;10368356;28;850;-72
2023/06/03 03:16:06;;;;;;;;;;;20.40;53.00;;;;;;10367055;28;872;-72
2023/06/03 03:21:02;;;;;;;;;;;20.40;52.90;;;;;;10368068;28;854;-72
2023/06/03 03:25:57;;;;;;;;;;;20.40;52.90;;;;;;10366581;28;1959;-72
2023/06/03 03:30:53;;;;;;;;;;;20.30;52.80;;;;;;10367318;28;827;-72
2023/06/03 03:35:49;;;;;;;;;;;20.40;52.90;;;;;;10366428;28;1247;-72
2023/06/03 03:40:44;;;;;;;;;;;20.30;52.90;;;;;;10367517;28;988;-72
2023/06/03 03:45:40;;;;;;;;;;;20.30;52.90;;;;;;10366760;28;1926;-72
2023/06/03 03:50:35;;;;;;;;;;;20.30;52.80;;;;;;10366591;28;949;-71
2023/06/03 03:55:30;;;;;;;;;;;20.30;52.90;;;;;;10365834;28;975;-72
2023/06/03 04:00:26;;;;;;;;;;;20.30;52.90;;;;;;10366467;28;972;-72
2023/06/03 04:05:22;;;;;;;;;;;20.30;52.80;;;;;;10366646;28;1914;-72
2023/06/03 04:10:18;;;;;;;;;;;20.40;53.50;;;;;;10367050;28;876;-72
2023/06/03 04:15:13;;;;;;;;;;;20.30;52.80;;;;;;10368513;28;810;-72
2023/06/03 04:20:09;;;;;;;;;;;20.30;52.80;;;;;;10374473;28;787;-72
2023/06/03 04:25:04;;;;;;;;;;;20.30;52.80;;;;;;10374258;28;1966;-72
2023/06/03 04:30:00;;;;;;;;;;;20.30;52.80;;;;;;10374945;28;818;-72
2023/06/03 04:34:56;;;;;;;;;;;20.30;52.70;;;;;;10374716;28;1145;-71
2023/06/03 04:39:51;;;;;;;;;;;20.30;52.70;;;;;;10374336;28;849;-71
2023/06/03 04:44:48;;;;;;;;;;;20.40;52.70;;;;;;10373523;28;1979;-72
2023/06/03 04:49:45;;;;;;;;;;;20.40;52.60;;;;;;10373278;28;975;-71
2023/06/03 04:54:40;;;;;;;;;;;20.40;52.60;;;;;;10373460;28;1722;-71
2023/06/03 04:59:36;;;;;;;;;;;20.40;52.50;;;;;;10372340;28;1085;-70
2023/06/03 05:04:31;;;;;;;;;;;20.40;52.40;;;;;;10373483;28;1918;-70
2023/06/03 05:09:27;;;;;;;;;;;20.40;52.50;;;;;;10372590;28;847;-70
2023/06/03 05:14:22;;;;;;;;;;;20.40;52.60;;;;;;10373323;28;778;-70
2023/06/03 05:19:17;;;;;;;;;;;20.40;52.60;;;;;;10371500;28;938;-70
2023/06/03 05:24:13;;;;;;;;;;;20.40;52.70;;;;;;10371996;28;1977;-70
2023/06/03 05:29:08;;;;;;;;;;;20.40;52.70;;;;;;10370841;28;892;-71
2023/06/03 05:34:04;;;;;;;;;;;20.40;52.70;;;;;;10371565;28;1196;-73
2023/06/03 05:38:59;;;;;;;;;;;20.40;52.90;;;;;;10371424;28;910;-73
2023/06/03 05:43:54;;;;;;;;;;;20.40;52.80;;;;;;10371217;28;1913;-73
2023/06/03 05:48:50;;;;;;;;;;;20.30;52.80;;;;;;10371672;28;864;-72
2023/06/03 05:53:45;;;;;;;;;;;20.30;52.80;;;;;;10371425;28;881;-73
2023/06/03 05:58:43;;;;;;;;;;;20.30;52.70;;;;;;10370639;28;884;-72
2023/06/03 06:03:38;;;;;;;;;;;20.30;52.70;;;;;;10370453;28;1963;-71
2023/06/03 06:08:34;;;;;;;;;;;20.30;52.60;;;;;;10370299;28;868;-73
2023/06/03 06:13:29;;;;;;;;;;;20.30;52.60;;;;;;10370007;28;823;-69
2023/06/03 06:18:25;;;;;;;;;;;20.30;52.60;;;;;;10370495;28;793;-70
2023/06/03 06:23:20;;;;;;;;;;;20.30;52.60;;;;;;10370337;28;1961;-70
2023/06/03 06:28:15;;;;;;;;;;;20.30;52.60;;;;;;10369524;28;831;-69
2023/06/03 06:33:11;;;;;;;;;;;20.40;52.60;;;;;;10369692;28;971;-70
2023/06/03 06:38:06;;;;;;;;;;;20.40;52.60;;;;;;10350022;28;1232;-69
2023/06/03 06:43:02;;;;;;;;;;;20.40;52.70;;;;;;10368948;28;776;-69
2023/06/03 06:47:57;;;;;;;;;;;20.40;52.80;;;;;;10368659;28;1918;-73
2023/06/03 06:52:52;;;;;;;;;;;20.40;52.80;;;;;;10368576;28;782;-73
2023/06/03 06:57:48;;;;;;;;;;;20.40;52.90;;;;;;10369006;28;886;-69
2023/06/03 07:02:43;;;;;;;;;;;20.30;52.80;;;;;;10368222;28;751;-69
2023/06/03 07:07:38;;;;;;;;;;;20.20;52.60;;;;;;10368009;28;1997;-69
2023/06/03 07:12:34;;;;;;;;;;;20.20;52.20;;;;;;10368421;28;866;-68
2023/06/03 07:17:29;;;;;;;;;;;20.20;51.80;;;;;;10367652;28;781;-68
2023/06/03 07:22:25;;;;;;;;;;;20.20;51.60;;;;;;10368210;28;920;-68
2023/06/03 07:27:20;;;;;;;;;;;20.30;51.50;;;;;;10367320;28;1905;-68
2023/06/03 07:32:16;;;;;;;;;;;20.30;51.40;;;;;;10367219;28;971;-68
2023/06/03 07:37:11;;;;;;;;;;;20.30;51.50;;;;;;10367517;28;1092;-68
2023/06/03 07:42:06;;;;;;;;;;;20.30;51.50;;;;;;10367511;28;867;-68
2023/06/03 07:47:02;;;;;;;;;;;20.30;51.60;;;;;;10367337;28;1979;-68
2023/06/03 07:51:57;;;;;;;;;;;20.30;51.70;;;;;;10367301;28;825;-68
2023/06/03 07:56:52;;;;;;;;;;;20.30;51.80;;;;;;10366561;28;860;-68
2023/06/03 08:01:50;;;;;;;;;;;20.30;51.80;;;;;;10365870;28;1162;-72
2023/06/03 08:06:46;;;;;;;;;;;20.30;51.90;;;;;;10366797;28;1913;-73
2023/06/03 08:11:41;;;;;;;;;;;20.20;51.90;;;;;;10366214;28;922;-69
2023/06/03 08:16:37;;;;;;;;;;;20.20;51.70;;;;;;10366254;28;916;-69
2023/06/03 08:21:33;;;;;;;;;;;20.20;51.40;;;;;;10366691;28;842;-70
2023/06/03 08:26:29;;;;;;;;;;;20.30;51.30;;;;;;10366457;28;1906;-70
2023/06/03 08:31:24;;;;;;;;;;;20.30;51.20;;;;;;10366444;28;975;-69
2023/06/03 08:36:20;;;;;;;;;;;20.30;51.30;;;;;;10365814;28;1227;-70
2023/06/03 08:41:15;;;;;;;;;;;20.30;51.30;;;;;;10366803;28;853;-69
2023/06/03 08:46:11;;;;;;;;;;;20.30;51.30;;;;;;10365461;28;1918;-69
2023/06/03 08:51:06;;;;;;;;;;;20.30;51.40;;;;;;10365510;28;968;-70
2023/06/03 08:56:02;;;;;;;;;;;20.30;51.30;;;;;;10365449;28;773;-70
2023/06/03 09:00:59;;;;;;;;;;;20.40;51.50;;;;;;10367712;28;888;-69
2023/06/03 09:05:54;;;;;;;;;;;20.30;51.50;;;;;;10373472;28;1909;-70
2023/06/03 09:10:50;;;;;;;;;;;20.30;51.60;;;;;;10372558;28;894;-70
2023/06/03 09:15:45;;;;;;;;;;;20.40;51.80;;;;;;10372443;28;872;-70
2023/06/03 09:20:41;;;;;;;;;;;20.40;52.40;;;;;;10371662;28;942;-69
2023/06/03 09:25:36;;;;;;;;;;;20.40;51.80;;;;;;10371932;28;1975;-70
2023/06/03 09:30:35;;;;;;;;;;;20.30;51.90;;;;;;10371901;28;928;-70
2023/06/03 09:35:30;;;;;;;;;;;20.30;51.90;;;;;;10372229;28;1168;-69
2023/06/03 09:40:25;;;;;;;;;;;20.30;52.60;;;;;;10372098;28;835;-69
2023/06/03 09:45:21;;;;;;;;;;;20.30;52.10;;;;;;10371920;28;1898;-69
2023/06/03 09:50:17;;;;;;;;;;;20.30;52.10;;;;;;10370957;28;941;-70
2023/06/03 09:55:12;;;;;;;;;;;20.30;52.20;;;;;;10371668;28;899;-69
2023/06/03 10:00:07;;;;;;;;;;;20.20;52.10;;;;;;10371354;28;867;-70
2023/06/03 10:05:03;;;;;;;;;;;20.30;52.20;;;;;;10370718;28;1973;-70
2023/06/03 10:09:58;;;;;;;;;;;20.30;52.10;;;;;;10370309;28;846;-69
2023/06/03 10:14:53;;;;;;;;;;;20.30;52.10;;;;;;10368854;28;857;-70
2023/06/03 10:19:49;;;;;;;;;;;20.30;52.10;;;;;;10370729;28;838;-69
2023/06/03 10:24:44;;;;;;;;;;;20.30;52.10;;;;;;10369572;28;1917;-70
2023/06/03 10:29:40;;;;;;;;;;;20.30;52.20;;;;;;10369458;28;898;-70
2023/06/03 10:34:36;;;;;;;;;;;20.30;52.30;;;;;;10369087;28;1246;-69
2023/06/03 10:39:32;;;;;;;;;;;20.30;52.30;;;;;;10369041;28;998;-68
2023/06/03 10:44:27;;;;;;;;;;;20.30;52.30;;;;;;10368800;28;1926;-69
2023/06/03 10:49:22;;;;;;;;;;;20.30;52.20;;;;;;10369375;28;858;-69
2023/06/03 10:54:18;;;;;;;;;;;20.40;52.10;;;;;;10367913;28;888;-68
2023/06/03 10:59:13;;;;;;;;;;;20.40;52.20;;;;;;10368460;28;853;-70
2023/06/03 11:04:09;;;;;;;;;;;20.30;52.10;;;;;;10369104;28;1914;-69
2023/06/03 11:09:09;;;;;;;;;;;20.40;52.20;;;;;;10368604;28;871;-69
2023/06/03 11:14:04;;;;;;;;;;;20.40;52.20;;;;;;10368698;28;829;-69
2023/06/03 11:18:59;;;;;;;;;;;20.40;52.30;;;;;;10367706;28;803;-69
2023/06/03 11:23:55;;;;;;;;;;;20.40;52.30;;;;;;10366867;28;1905;-69
2023/06/03 11:28:50;;;;;;;;;;;20.40;52.40;;;;;;10367970;28;798;-69
2023/06/03 11:33:46;;;;;;;;;;;20.30;52.30;;;;;;10367542;28;1203;-69
2023/06/03 11:38:41;;;;;;;;;;;20.40;52.40;;;;;;10366503;28;826;-68
2023/06/03 11:43:36;;;;;;;;;;;20.30;52.40;;;;;;10366814;28;1972;-68
2023/06/03 11:48:37;;;;;;;;;;;20.40;52.50;;;;;;10366252;28;825;-68
2023/06/03 11:53:32;;;;;;;;;;;20.30;52.50;;;;;;10366989;28;878;-68
2023/06/03 11:58:27;;;;;;;;;;;20.30;52.50;;;;;;10366728;28;905;-68
2023/06/03 12:03:23;;;;;;;;;;;20.40;52.60;;;;;;10367014;28;1913;-68
2023/06/03 12:08:19;;;;;;;;;;;20.40;52.60;;;;;;10366380;28;797;-68
2023/06/03 12:13:14;;;;;;;;;;;20.40;52.50;;;;;;10365603;28;873;-69
2023/06/03 12:18:10;;;;;;;;;;;20.30;52.50;;;;;;10366181;28;763;-69
2023/06/03 12:23:05;;;;;;;;;;;20.40;52.50;;;;;;10366393;28;785;-70
2023/06/03 12:28:00;;;;;;;;;;;20.40;52.50;;;;;;10365520;28;1905;-69
2023/06/03 12:32:57;;;;;;;;;;;20.40;52.50;;;;;;10366165;28;886;-69
2023/06/03 12:37:52;;;;;;;;;;;20.40;52.50;;;;;;10370824;28;1403;-69
2023/06/03 12:42:48;;;;;;;;;;;20.40;52.60;;;;;;10374130;28;934;-69
2023/06/03 12:47:45;;;;;;;;;;;20.30;52.30;;;;;;10373884;28;1917;-69
2023/06/03 12:52:40;;;;;;;;;;;20.30;52.00;;;;;;10373095;28;902;-69
2023/06/03 12:57:36;;;;;;;;;;;20.30;51.50;;;;;;10372843;28;1006;-69
2023/06/03 13:02:31;;;;;;;;;;;20.30;50.90;;;;;;10372717;28;828;-69
2023/06/03 13:07:27;;;;;;;;;;;20.30;50.40;;;;;;10372554;28;1968;-69
2023/06/03 13:12:22;;;;;;;;;;;20.30;50.10;;;;;;10372340;28;797;-69
2023/06/03 13:17:17;;;;;;;;;;;20.40;49.50;;;;;;10372743;28;900;-69
2023/06/03 13:22:13;;;;;;;;;;;20.40;49.30;;;;;;10371347;28;1165;-69
2023/06/03 13:27:09;;;;;;;;;;;20.30;48.90;;;;;;10372373;28;1894;-69
2023/06/03 13:32:04;;;;;;;;;;;20.40;48.70;;;;;;10372080;28;766;-69
2023/06/03 13:37:00;;;;;;;;;;;20.40;48.40;;;;;;10371252;28;1107;-69
2023/06/03 13:41:55;;;;;;;;;;;20.40;48.30;;;;;;10371206;28;838;-69
2023/06/03 13:46:51;;;;;;;;;;;20.40;48.20;;;;;;10370027;28;1969;-69
2023/06/03 13:51:46;;;;;;;;;;;20.40;48.00;;;;;;10371554;28;888;-69
2023/06/03 13:56:42;;;;;;;;;;;20.50;47.70;;;;;;10370598;28;928;-69
2023/06/03 14:01:37;;;;;;;;;;;20.50;47.50;;;;;;10370965;28;841;-69
2023/06/03 14:06:33;;;;;;;;;;;20.50;47.10;;;;;;10370765;28;1905;-69
2023/06/03 14:11:28;;;;;;;;;;;20.50;46.60;;;;;;10370097;28;798;-69
2023/06/03 14:16:26;;;;;;;;;;;20.60;46.50;;;;;;10370486;28;789;-69
2023/06/03 14:21:23;;;;;;;;;;;20.70;46.10;;;;;;10369900;28;754;-69
2023/06/03 14:26:18;;;;;;;;;;;20.70;45.90;;;;;;10369298;28;1959;-69
2023/06/03 14:31:16;;;;;;;;;;;20.70;45.40;;;;;;10369334;28;856;-69
2023/06/03 14:36:12;;;;;;;;;;;20.70;45.10;;;;;;10369565;28;1142;-69
2023/06/03 14:41:08;;;;;;;;;;;20.70;44.70;;;;;;10368909;28;860;-69
2023/06/03 14:46:04;;;;;;;;;;;20.80;44.40;;;;;;10368632;28;1906;-70
2023/06/03 14:51:01;;;;;;;;;;;20.80;44.30;;;;;;10368414;28;923;-70
2023/06/03 14:55:57;;;;;;;;;;;20.90;44.80;;;;;;10368262;28;917;-70
2023/06/03 15:00:53;;;;;;;;;;;20.90;45.30;;;;;;10367393;28;945;-70
2023/06/03 15:05:48;;;;;;;;;;;21.00;45.50;;;;;;10367301;28;1901;-70
2023/06/03 15:10:46;;;;;;;;;;;21.00;45.70;;;;;;10368285;28;834;-70
2023/06/03 15:15:41;;;;;;;;;;;21.00;45.80;;;;;;10367564;28;933;-69
2023/06/03 15:20:37;;;;;;;;;;;21.10;45.90;;;;;;10367642;28;865;-70
2023/06/03 15:25:32;;;;;;;;;;;21.20;46.20;;;;;;10366653;28;1902;-70
2023/06/03 15:30:27;;;;;;;;;;;21.20;46.30;;;;;;10366493;28;887;-70
2023/06/03 15:35:23;;;;;;;;;;;21.20;46.30;;;;;;10367106;28;1264;-68
2023/06/03 15:40:18;;;;;;;;;;;21.30;46.50;;;;;;10366776;28;925;-69
2023/06/03 15:45:14;;;;;;;;;;;21.40;47.20;;;;;;10366627;28;1981;-69
2023/06/03 15:50:09;;;;;;;;;;;21.40;46.60;;;;;;10366508;28;860;-69
2023/06/03 15:55:04;;;;;;;;;;;21.50;46.70;;;;;;10366473;28;805;-69
2023/06/03 16:00:00;;;;;;;;;;;21.50;46.70;;;;;;10366295;28;886;-69
2023/06/03 16:04:55;;;;;;;;;;;21.50;46.80;;;;;;10365553;28;1969;-70
2023/06/03 16:09:50;;;;;;;;;;;21.40;47.00;;;;;;10367929;28;889;-70
2023/06/03 16:14:48;;;;;;;;;;;21.20;47.30;;;;;;10374622;28;912;-74
2023/06/03 16:19:43;;;;;;;;;;;21.10;47.50;;;;;;10374464;28;856;-74
2023/06/03 16:24:39;;;;;;;;;;;21.10;47.60;;;;;;10374233;28;1963;-74
2023/06/03 16:29:35;;;;;;;;;;;21.10;47.60;;;;;;10374224;28;860;-74
2023/06/03 16:34:30;;;;;;;;;;;21.10;47.70;;;;;;10374441;28;1342;-68
2023/06/03 16:39:25;;;;;;;;;;;21.10;47.90;;;;;;10374560;28;866;-68
2023/06/03 16:44:21;;;;;;;;;;;21.00;47.90;;;;;;10374271;28;1973;-68
2023/06/03 16:49:17;;;;;;;;;;;21.00;47.70;;;;;;10374204;28;845;-68
2023/06/03 16:54:12;;;;;;;;;;;20.90;47.80;;;;;;10373953;28;860;-68
2023/06/03 16:59:07;;;;;;;;;;;20.90;47.80;;;;;;10373150;28;875;-68
2023/06/03 17:04:03;;;;;;;;;;;20.90;47.70;;;;;;10373718;28;1953;-68
2023/06/03 17:08:58;;;;;;;;;;;20.90;47.80;;;;;;10372778;28;870;-68
2023/06/03 17:13:58;;;;;;;;;;;20.90;47.80;;;;;;10372636;28;784;-68
2023/06/03 17:18:53;;;;;;;;;;;20.90;47.80;;;;;;10372315;28;934;-68
2023/06/03 17:23:48;;;;;;;;;;;21.00;47.90;;;;;;10371352;28;1898;-68
2023/06/03 17:28:44;;;;;;;;;;;20.90;47.90;;;;;;10371915;28;935;-70
2023/06/03 17:33:40;;;;;;;;;;;20.90;48.00;;;;;;10371579;28;1054;-71
2023/06/03 17:38:37;;;;;;;;;;;20.90;48.20;;;;;;10371782;28;1039;-69
2023/06/03 17:43:32;;;;;;;;;;;20.90;48.40;;;;;;10372076;28;812;-70
2023/06/03 17:48:27;;;;;;;;;;;20.90;48.40;;;;;;10371230;28;1910;-70
2023/06/03 17:53:23;;;;;;;;;;;20.90;48.40;;;;;;10371162;28;885;-67
2023/06/03 17:58:18;;;;;;;;;;;20.90;48.50;;;;;;10370914;28;786;-70
2023/06/03 18:03:13;;;;;;;;;;;20.90;48.50;;;;;;10371163;28;913;-70
2023/06/03 18:08:09;;;;;;;;;;;20.90;48.50;;;;;;10371196;28;1956;-70
2023/06/03 18:13:04;;;;;;;;;;;20.90;48.60;;;;;;10370256;28;964;-70
2023/06/03 18:18:00;;;;;;;;;;;20.90;48.60;;;;;;10370696;28;955;-70
2023/06/03 18:22:56;;;;;;;;;;;20.90;48.60;;;;;;10370813;28;794;-70
2023/06/03 18:27:51;;;;;;;;;;;20.90;48.60;;;;;;10369965;28;1965;-70
2023/06/03 18:32:46;;;;;;;;;;;20.90;48.50;;;;;;10370258;28;982;-70
2023/06/03 18:37:47;;;;;;;;;;;20.90;48.70;;;;;;10369239;28;1148;-70
2023/06/03 18:42:42;;;;;;;;;;;21.00;48.60;;;;;;10369182;28;1045;-70
2023/06/03 18:47:38;;;;;;;;;;;20.90;48.70;;;;;;10368959;28;1971;-70
2023/06/03 18:52:34;;;;;;;;;;;21.00;48.70;;;;;;10369417;28;848;-70
2023/06/03 18:57:29;;;;;;;;;;;20.90;48.60;;;;;;10369241;28;808;-70
2023/06/03 19:02:24;;;;;;;;;;;20.90;48.60;;;;;;10368378;28;1661;-70
2023/06/03 19:07:20;;;;;;;;;;;20.90;48.60;;;;;;10368177;28;1901;-70
2023/06/03 19:12:15;;;;;;;;;;;20.90;48.70;;;;;;10367507;28;880;-70
2023/06/03 19:17:10;;;;;;;;;;;21.00;48.70;;;;;;10367873;28;765;-70
2023/06/03 19:22:06;;;;;;;;;;;20.90;48.70;;;;;;10368217;28;841;-70
2023/06/03 19:27:01;;;;;;;;;;;20.90;48.70;;;;;;10367503;28;1898;-70
2023/06/03 19:31:57;;;;;;;;;;;21.00;48.80;;;;;;10367390;28;873;-70
2023/06/03 19:36:52;;;;;;;;;;;20.90;48.80;;;;;;10367857;28;1152;-70
2023/06/03 19:41:47;;;;;;;;;;;21.00;48.80;;;;;;10367017;28;890;-70
2023/06/03 19:46:43;;;;;;;;;;;20.90;48.80;;;;;;10365964;28;2010;-70
2023/06/03 19:51:38;;;;;;;;;;;20.90;48.90;;;;;;10366815;28;787;-70
2023/06/03 19:56:34;;;;;;;;;;;21.00;48.90;;;;;;10366594;28;838;-70
2023/06/03 20:01:30;;;;;;;;;;;20.90;48.80;;;;;;10367204;28;807;-70
2023/06/03 20:06:25;;;;;;;;;;;21.00;48.90;;;;;;10366287;28;1901;-70
2023/06/03 20:11:21;;;;;;;;;;;20.90;48.90;;;;;;10367177;28;791;-70
2023/06/03 20:16:16;;;;;;;;;;;20.90;48.90;;;;;;10366359;28;1031;-70
2023/06/03 20:21:12;;;;;;;;;;;20.90;48.90;;;;;;10366235;28;872;-70
2023/06/03 20:26:07;;;;;;;;;;;20.90;49.00;;;;;;10366179;28;1909;-70
2023/06/03 20:31:07;;;;;;;;;;;20.90;49.00;;;;;;10366707;28;789;-70
2023/06/03 20:36:02;;;;;;;;;;;20.90;48.90;;;;;;10366095;28;1403;-70
2023/06/03 20:40:58;;;;;;;;;;;20.90;49.00;;;;;;10365766;28;953;-68
2023/06/03 20:45:54;;;;;;;;;;;20.90;48.90;;;;;;10365700;28;1913;-68
2023/06/03 20:50:50;;;;;;;;;;;20.90;48.80;;;;;;10365592;28;902;-70
2023/06/03 20:55:45;;;;;;;;;;;20.90;48.80;;;;;;10366265;28;762;-69
2023/06/03 21:00:41;;;;;;;;;;;20.90;48.80;;;;;;10373181;28;765;-69
2023/06/03 21:05:36;;;;;;;;;;;20.90;48.90;;;;;;10372981;28;1961;-70
2023/06/03 21:10:31;;;;;;;;;;;20.90;48.90;;;;;;10372798;28;805;-70
2023/06/03 21:15:27;;;;;;;;;;;20.90;48.90;;;;;;10373272;28;952;-70
2023/06/03 21:20:22;;;;;;;;;;;20.90;48.90;;;;;;10372503;28;813;-70
2023/06/03 21:25:17;;;;;;;;;;;20.80;48.80;;;;;;10372817;28;1959;-70
2023/06/03 21:30:13;;;;;;;;;;;20.80;48.80;;;;;;10372879;28;927;-69
2023/06/03 21:35:09;;;;;;;;;;;20.80;48.80;;;;;;10371191;28;1363;-69
2023/06/03 21:40:04;;;;;;;;;;;20.80;48.80;;;;;;10371657;28;894;-69
2023/06/03 21:45:00;;;;;;;;;;;20.80;48.90;;;;;;10370738;28;1910;-69
2023/06/03 21:49:55;;;;;;;;;;;20.80;48.90;;;;;;10371321;28;872;-70
2023/06/03 21:54:52;;;;;;;;;;;20.80;49.00;;;;;;10371149;28;805;-70
2023/06/03 21:59:47;;;;;;;;;;;20.80;49.10;;;;;;10370980;28;758;-70
2023/06/03 22:04:42;;;;;;;;;;;20.80;49.10;;;;;;10371152;28;1902;-70
2023/06/03 22:09:38;;;;;;;;;;;20.80;49.10;;;;;;10371187;28;798;-70
2023/06/03 22:14:33;;;;;;;;;;;20.80;49.20;;;;;;10370996;28;904;-70
2023/06/03 22:19:29;;;;;;;;;;;20.80;49.20;;;;;;10369581;28;869;-70
2023/06/03 22:24:24;;;;;;;;;;;20.80;49.10;;;;;;10370458;28;1906;-70
2023/06/03 22:29:19;;;;;;;;;;;20.80;49.10;;;;;;10369755;28;777;-69
2023/06/03 22:34:15;;;;;;;;;;;20.80;49.20;;;;;;10369040;28;1159;-70
2023/06/03 22:39:11;;;;;;;;;;;20.80;49.40;;;;;;10369384;28;914;-70
2023/06/03 22:44:06;;;;;;;;;;;20.80;49.10;;;;;;10369087;28;1967;-69
2023/06/03 22:49:01;;;;;;;;;;;20.70;49.70;;;;;;10369610;28;798;-70
2023/06/03 22:53:57;;;;;;;;;;;20.80;49.20;;;;;;10368743;28;838;-70
2023/06/03 22:58:52;;;;;;;;;;;20.70;49.10;;;;;;10368634;28;932;-70
2023/06/03 23:03:48;;;;;;;;;;;20.70;49.10;;;;;;10368697;28;1898;-70
2023/06/03 23:08:43;;;;;;;;;;;20.70;49.10;;;;;;10368253;28;909;-69
2023/06/03 23:13:38;;;;;;;;;;;20.70;49.10;;;;;;10369157;28;755;-70
2023/06/03 23:18:34;;;;;;;;;;;20.70;49.20;;;;;;10368418;28;909;-70
2023/06/03 23:23:29;;;;;;;;;;;20.70;49.10;;;;;;10367146;28;857;-70
2023/06/03 23:28:25;;;;;;;;;;;20.80;49.10;;;;;;10367722;28;1909;-70
2023/06/03 23:33:20;;;;;;;;;;;20.80;48.90;;;;;;10368576;28;876;-69
2023/06/03 23:38:15;;;;;;;;;;;20.80;48.80;;;;;;10367748;28;1388;-69
2023/06/03 23:43:11;;;;;;;;;;;20.80;48.80;;;;;;10367099;28;796;-70
2023/06/03 23:48:08;;;;;;;;;;;20.80;48.90;;;;;;10366852;28;1971;-70
2023/06/03 23:53:05;;;;;;;;;;;20.80;48.90;;;;;;10366712;28;871;-70
2023/06/03 23:58:01;;;;;;;;;;;20.80;48.90;;;;;;10367729;28;942;-70
